College Station, TX (77840)

9:56 PM CST on December 08, 2016 (GMT -0600)
Southwood Valley | | Change Station
Active Advisory: Freeze Warning

Elev 292 ft 30.59 °N, 96.31 °W | Updated 7 minutes ago

Overcast
Overcast
37.2 °F
Feels Like 34 °F
N
3.7
Wind Variable Wind from WSW

Today
High -- | Low -- °F
--% Chance of Precip.
Yesterday
High -- | Low -- °F
Precip. -- in
Pressure 30.63 in
Visibility 10.0 miles
Clouds Mostly Cloudy 10000 ft
Overcast 11000 ft
Windchill 34 °F
Dew Point 25 °F
Humidity 61%
Rainfall 0.00 in
Snow Depth Not available.
7:10 AM 5:24 PM
Waxing Gibbous, 70% visible
METAR KCLL 090253Z 35015G20KT 10SM BKN100 OVC110 03/M04 A3063 RMK AO2 SLP373 T00281044 51032
Pressure 30.63 in
Visibility 10.0 miles
Clouds Mostly Cloudy 10000 ft
Overcast 11000 ft
Windchill 34 °F
Dew Point 25 °F
Humidity 61%
Rainfall 0.00 in
Snow Depth Not available.
7:10 AM 5:24 PM
Waxing Gibbous, 70% visible
METAR KCLL 090253Z 35015G20KT 10SM BKN100 OVC110 03/M04 A3063 RMK AO2 SLP373 T00281044 51032

10-Day Weather Forecast

Almanac

Astronomy

Dec. 08, 2016 Rise Set
Actual Time
Civil Twilight
Nautical Twilight
Astronomical Twilight
Moon
Length of Visible Light
Length of Day
Tomorrow will be .
, % of the Moon is Illuminated

Today's Extremes

State Highs State Lows

Community

WunderPhotos

Upload Photos

1,956,370 photos uploaded!

WunderBlog® & News

Nearby

Air Quality

  Air Quality AQ Index Pollutant
Not available.

Snow Depth

Station Depth Elevation

Earthquake Activity

City Distance Mag. Time & Date
Minimum magnitude displayed is 2.5.

Coastal Water Temperatures

Place Temperature

Stations

Nearby Weather Stations

Station Location Temp. Windchill Dew Point Humidity Wind Precip. Elev Updated Type
                   

Watches & Warnings

Freeze Warning
Issued: 6:07 PM CST Dec. 8, 2016 – National Weather Service

... Freeze warning remains in effect from midnight tonight to 9 am CST
Friday...

* event... temperatures 27 to 32 degrees

* timing... midnight to 9 am CST Friday

* impact... damage to tender vegetation and sensitive plants may occur
and these plants should be protected

Precautionary/preparedness actions...

A freeze warning means sub-freezing temperatures are imminent or highly
likely. These conditions will kill crops and other sensitive vegetation.